Altamont, New York
Current Conditions -  °F | °C
As of 7:14 AM on Friday 24 Oct 2014 (Local Time) from KALB Reporting Station
Light Rain Light Rain  
Wind Chill: 44°   Ceiling: 700
Heat Index: 46°   Visibility: 1.5mi
Dew Point: 43°   Wind: 5mph
Humidity: 89%   Direction: 360°N
Pressure: 29.84"   Gusts: NA
Location:  42.7°N, 74.03°W
Report Text: KALB 241114Z 36004KT 1 1/2SM -RA BR OVC007 08/06 A2984 RMK AO2 SFC VIS 2 VIS W-NW 1 1/2 CIG 004V009 P0003 T00780061
Loading
Personal Weather Stations






























Interactive Weather Map
Tropical Storm Tracking
New forecast layout! Learn more

10-Day Weather Forecast

Advertisements
Track Severe Weather on mobile